sensor_id;sensor_type;location;lat;lon;timestamp;temperature;humidity
19017;DHT22;9641;51.494;6.670;2023-12-28T00:00:25;10.50;99.90
19017;DHT22;9641;51.494;6.670;2023-12-28T00:02:53;10.50;99.90
19017;DHT22;9641;51.494;6.670;2023-12-28T00:05:24;10.50;99.90
19017;DHT22;9641;51.494;6.670;2023-12-28T00:07:51;10.50;99.90
19017;DHT22;9641;51.494;6.670;2023-12-28T00:10:23;10.50;99.90
19017;DHT22;9641;51.494;6.670;2023-12-28T00:12:51;10.50;99.90
19017;DHT22;9641;51.494;6.670;2023-12-28T00:15:19;10.50;99.90
19017;DHT22;9641;51.494;6.670;2023-12-28T00:17:47;10.50;99.90
19017;DHT22;9641;51.494;6.670;2023-12-28T00:20:14;10.40;99.90
19017;DHT22;9641;51.494;6.670;2023-12-28T00:22:41;10.40;99.90
19017;DHT22;9641;51.494;6.670;2023-12-28T00:25:08;10.40;99.90
19017;DHT22;9641;51.494;6.670;2023-12-28T00:27:35;10.40;99.90
19017;DHT22;9641;51.494;6.670;2023-12-28T00:30:06;10.30;99.90
19017;DHT22;9641;51.494;6.670;2023-12-28T00:32:35;10.30;99.90
19017;DHT22;9641;51.494;6.670;2023-12-28T00:35:02;10.30;99.90
19017;DHT22;9641;51.494;6.670;2023-12-28T00:37:30;10.30;99.90
19017;DHT22;9641;51.494;6.670;2023-12-28T00:39:57;10.40;99.90
19017;DHT22;9641;51.494;6.670;2023-12-28T00:42:24;10.40;99.90
19017;DHT22;9641;51.494;6.670;2023-12-28T00:44:52;10.40;99.90
19017;DHT22;9641;51.494;6.670;2023-12-28T00:47:20;10.30;99.90
19017;DHT22;9641;51.494;6.670;2023-12-28T00:49:51;10.40;99.90
19017;DHT22;9641;51.494;6.670;2023-12-28T00:52:18;10.30;99.90
19017;DHT22;9641;51.494;6.670;2023-12-28T00:54:45;10.30;99.90
19017;DHT22;9641;51.494;6.670;2023-12-28T00:57:13;10.40;99.90
19017;DHT22;9641;51.494;6.670;2023-12-28T00:59:40;10.30;99.90
19017;DHT22;9641;51.494;6.670;2023-12-28T01:02:07;10.30;99.90
19017;DHT22;9641;51.494;6.670;2023-12-28T01:04:35;10.30;99.90
19017;DHT22;9641;51.494;6.670;2023-12-28T01:07:06;10.30;99.90
19017;DHT22;9641;51.494;6.670;2023-12-28T01:09:34;10.20;99.90
19017;DHT22;9641;51.494;6.670;2023-12-28T01:12:00;10.20;99.90
19017;DHT22;9641;51.494;6.670;2023-12-28T01:14:29;10.20;99.90
19017;DHT22;9641;51.494;6.670;2023-12-28T01:16:56;10.20;99.90
19017;DHT22;9641;51.494;6.670;2023-12-28T01:19:23;10.20;99.90
19017;DHT22;9641;51.494;6.670;2023-12-28T01:21:50;10.30;99.90
19017;DHT22;9641;51.494;6.670;2023-12-28T01:24:21;10.30;99.90
19017;DHT22;9641;51.494;6.670;2023-12-28T01:26:48;10.30;99.90
19017;DHT22;9641;51.494;6.670;2023-12-28T01:29:15;10.30;99.90
19017;DHT22;9641;51.494;6.670;2023-12-28T01:31:42;10.30;99.90
19017;DHT22;9641;51.494;6.670;2023-12-28T01:34:10;10.30;99.90
19017;DHT22;9641;51.494;6.670;2023-12-28T01:36:38;10.30;99.90
19017;DHT22;9641;51.494;6.670;2023-12-28T01:39:09;10.40;99.90
19017;DHT22;9641;51.494;6.670;2023-12-28T01:41:37;10.30;99.90
19017;DHT22;9641;51.494;6.670;2023-12-28T01:44:04;10.40;99.90
19017;DHT22;9641;51.494;6.670;2023-12-28T01:46:32;10.40;99.90
19017;DHT22;9641;51.494;6.670;2023-12-28T01:48:59;10.40;99.90
19017;DHT22;9641;51.494;6.670;2023-12-28T01:51:27;10.30;99.90
19017;DHT22;9641;51.494;6.670;2023-12-28T01:53:55;10.40;99.90
19017;DHT22;9641;51.494;6.670;2023-12-28T01:56:24;10.40;99.90
19017;DHT22;9641;51.494;6.670;2023-12-28T01:58:54;10.40;99.90
19017;DHT22;9641;51.494;6.670;2023-12-28T02:01:21;10.40;99.90
19017;DHT22;9641;51.494;6.670;2023-12-28T02:03:51;10.40;99.90
19017;DHT22;9641;51.494;6.670;2023-12-28T02:06:18;10.50;99.90
19017;DHT22;9641;51.494;6.670;2023-12-28T02:08:49;10.50;99.90
19017;DHT22;9641;51.494;6.670;2023-12-28T02:11:19;10.50;99.90
19017;DHT22;9641;51.494;6.670;2023-12-28T02:13:47;10.50;99.90
19017;DHT22;9641;51.494;6.670;2023-12-28T02:16:22;10.60;99.90
19017;DHT22;9641;51.494;6.670;2023-12-28T02:18:55;10.50;99.90
19017;DHT22;9641;51.494;6.670;2023-12-28T02:21:25;10.60;99.90
19017;DHT22;9641;51.494;6.670;2023-12-28T02:23:52;10.60;99.90
19017;DHT22;9641;51.494;6.670;2023-12-28T02:26:21;10.60;99.90
19017;DHT22;9641;51.494;6.670;2023-12-28T02:28:49;10.60;99.90
19017;DHT22;9641;51.494;6.670;2023-12-28T02:31:21;10.60;99.90
19017;DHT22;9641;51.494;6.670;2023-12-28T02:33:54;10.60;99.90
19017;DHT22;9641;51.494;6.670;2023-12-28T02:36:30;10.60;99.90
19017;DHT22;9641;51.494;6.670;2023-12-28T02:38:58;10.70;99.90
19017;DHT22;9641;51.494;6.670;2023-12-28T02:41:34;10.70;99.90
19017;DHT22;9641;51.494;6.670;2023-12-28T02:44:01;10.70;99.90
19017;DHT22;9641;51.494;6.670;2023-12-28T02:46:30;10.60;99.90
19017;DHT22;9641;51.494;6.670;2023-12-28T02:48:57;10.70;99.90
19017;DHT22;9641;51.494;6.670;2023-12-28T02:51:25;10.70;99.90
19017;DHT22;9641;51.494;6.670;2023-12-28T02:53:52;10.70;99.90
19017;DHT22;9641;51.494;6.670;2023-12-28T02:56:20;10.70;99.90
19017;DHT22;9641;51.494;6.670;2023-12-28T02:58:48;10.80;99.90
19017;DHT22;9641;51.494;6.670;2023-12-28T03:01:15;10.80;99.90
19017;DHT22;9641;51.494;6.670;2023-12-28T03:03:43;10.80;99.90
19017;DHT22;9641;51.494;6.670;2023-12-28T03:06:10;10.80;99.90
19017;DHT22;9641;51.494;6.670;2023-12-28T03:08:39;10.80;99.90
19017;DHT22;9641;51.494;6.670;2023-12-28T03:11:08;10.70;99.90
19017;DHT22;9641;51.494;6.670;2023-12-28T03:13:35;10.80;99.90
19017;DHT22;9641;51.494;6.670;2023-12-28T03:16:04;10.80;99.90
19017;DHT22;9641;51.494;6.670;2023-12-28T03:18:31;10.80;99.90
19017;DHT22;9641;51.494;6.670;2023-12-28T03:21:00;10.80;99.90
19017;DHT22;9641;51.494;6.670;2023-12-28T03:23:27;10.80;99.90
19017;DHT22;9641;51.494;6.670;2023-12-28T03:25:54;10.80;99.90
19017;DHT22;9641;51.494;6.670;2023-12-28T03:28:21;10.80;99.90
19017;DHT22;9641;51.494;6.670;2023-12-28T03:30:49;10.80;99.90
19017;DHT22;9641;51.494;6.670;2023-12-28T03:33:18;10.80;99.90
19017;DHT22;9641;51.494;6.670;2023-12-28T03:35:46;10.80;99.90
19017;DHT22;9641;51.494;6.670;2023-12-28T03:38:13;10.80;99.90
19017;DHT22;9641;51.494;6.670;2023-12-28T03:40:40;10.80;99.90
19017;DHT22;9641;51.494;6.670;2023-12-28T03:43:07;10.70;99.90
19017;DHT22;9641;51.494;6.670;2023-12-28T03:45:34;10.70;99.90
19017;DHT22;9641;51.494;6.670;2023-12-28T03:48:02;10.70;99.90
19017;DHT22;9641;51.494;6.670;2023-12-28T03:50:31;10.70;99.90
19017;DHT22;9641;51.494;6.670;2023-12-28T03:52:57;10.60;99.90
19017;DHT22;9641;51.494;6.670;2023-12-28T03:55:25;10.60;99.90
19017;DHT22;9641;51.494;6.670;2023-12-28T03:57:52;10.60;99.90
19017;DHT22;9641;51.494;6.670;2023-12-28T04:00:19;10.60;99.90
19017;DHT22;9641;51.494;6.670;2023-12-28T04:02:51;10.60;99.90
19017;DHT22;9641;51.494;6.670;2023-12-28T04:05:18;10.50;99.90
19017;DHT22;9641;51.494;6.670;2023-12-28T04:07:47;10.50;99.90
19017;DHT22;9641;51.494;6.670;2023-12-28T04:10:28;10.50;99.90
19017;DHT22;9641;51.494;6.670;2023-12-28T04:12:55;10.50;99.90
19017;DHT22;9641;51.494;6.670;2023-12-28T04:15:26;10.60;99.90
19017;DHT22;9641;51.494;6.670;2023-12-28T04:17:53;10.60;99.90
19017;DHT22;9641;51.494;6.670;2023-12-28T04:20:20;10.60;99.90
19017;DHT22;9641;51.494;6.670;2023-12-28T04:22:49;10.60;99.90
19017;DHT22;9641;51.494;6.670;2023-12-28T04:25:16;10.60;99.90
19017;DHT22;9641;51.494;6.670;2023-12-28T04:27:54;10.60;99.90
19017;DHT22;9641;51.494;6.670;2023-12-28T04:30:21;10.50;99.90
19017;DHT22;9641;51.494;6.670;2023-12-28T04:32:48;10.50;99.90
19017;DHT22;9641;51.494;6.670;2023-12-28T04:35:15;10.50;99.90
19017;DHT22;9641;51.494;6.670;2023-12-28T04:37:42;10.50;99.90
19017;DHT22;9641;51.494;6.670;2023-12-28T04:40:11;10.50;99.90
19017;DHT22;9641;51.494;6.670;2023-12-28T04:42:41;10.50;99.90
19017;DHT22;9641;51.494;6.670;2023-12-28T04:45:09;10.50;99.90
19017;DHT22;9641;51.494;6.670;2023-12-28T04:47:36;10.50;99.90
19017;DHT22;9641;51.494;6.670;2023-12-28T04:50:05;10.40;99.90
19017;DHT22;9641;51.494;6.670;2023-12-28T04:52:32;10.50;99.90
19017;DHT22;9641;51.494;6.670;2023-12-28T04:55:00;10.40;99.90
19017;DHT22;9641;51.494;6.670;2023-12-28T04:57:28;10.40;99.90
19017;DHT22;9641;51.494;6.670;2023-12-28T04:59:55;10.40;99.90
19017;DHT22;9641;51.494;6.670;2023-12-28T05:02:23;10.40;99.90
19017;DHT22;9641;51.494;6.670;2023-12-28T05:04:50;10.40;99.90
19017;DHT22;9641;51.494;6.670;2023-12-28T05:07:25;10.40;99.90
19017;DHT22;9641;51.494;6.670;2023-12-28T05:09:52;10.50;99.90
19017;DHT22;9641;51.494;6.670;2023-12-28T05:12:19;10.40;99.90
19017;DHT22;9641;51.494;6.670;2023-12-28T05:14:48;10.40;99.90
19017;DHT22;9641;51.494;6.670;2023-12-28T05:17:15;10.40;99.90
19017;DHT22;9641;51.494;6.670;2023-12-28T05:19:43;10.40;99.90
19017;DHT22;9641;51.494;6.670;2023-12-28T05:22:10;10.50;99.90
19017;DHT22;9641;51.494;6.670;2023-12-28T05:24:39;10.50;99.90
19017;DHT22;9641;51.494;6.670;2023-12-28T05:27:07;10.40;99.90
19017;DHT22;9641;51.494;6.670;2023-12-28T05:29:34;10.50;99.90
19017;DHT22;9641;51.494;6.670;2023-12-28T05:32:04;10.40;99.90
19017;DHT22;9641;51.494;6.670;2023-12-28T05:34:31;10.40;99.90
19017;DHT22;9641;51.494;6.670;2023-12-28T05:36:58;10.50;99.90
19017;DHT22;9641;51.494;6.670;2023-12-28T05:39:25;10.50;99.90
19017;DHT22;9641;51.494;6.670;2023-12-28T05:41:52;10.50;99.90
19017;DHT22;9641;51.494;6.670;2023-12-28T05:44:20;10.50;99.90
19017;DHT22;9641;51.494;6.670;2023-12-28T05:46:47;10.50;99.90
19017;DHT22;9641;51.494;6.670;2023-12-28T05:49:17;10.50;99.90
19017;DHT22;9641;51.494;6.670;2023-12-28T05:51:45;10.50;99.90
19017;DHT22;9641;51.494;6.670;2023-12-28T05:54:12;10.60;99.90
19017;DHT22;9641;51.494;6.670;2023-12-28T05:56:40;10.60;99.90
19017;DHT22;9641;51.494;6.670;2023-12-28T05:59:06;10.60;99.90
19017;DHT22;9641;51.494;6.670;2023-12-28T06:01:41;10.70;99.90
19017;DHT22;9641;51.494;6.670;2023-12-28T06:04:08;10.70;99.90
19017;DHT22;9641;51.494;6.670;2023-12-28T06:06:39;10.70;99.90
19017;DHT22;9641;51.494;6.670;2023-12-28T06:09:06;10.80;99.90
19017;DHT22;9641;51.494;6.670;2023-12-28T06:11:34;10.80;99.90
19017;DHT22;9641;51.494;6.670;2023-12-28T06:14:01;10.80;99.90
19017;DHT22;9641;51.494;6.670;2023-12-28T06:16:28;10.80;99.90
19017;DHT22;9641;51.494;6.670;2023-12-28T06:18:58;10.80;99.90
19017;DHT22;9641;51.494;6.670;2023-12-28T06:21:26;10.80;99.90
19017;DHT22;9641;51.494;6.670;2023-12-28T06:23:58;10.80;99.90
19017;DHT22;9641;51.494;6.670;2023-12-28T06:26:25;10.80;99.90
19017;DHT22;9641;51.494;6.670;2023-12-28T06:28:52;10.80;99.90
19017;DHT22;9641;51.494;6.670;2023-12-28T06:31:19;10.80;99.90
19017;DHT22;9641;51.494;6.670;2023-12-28T06:33:47;10.80;99.90
19017;DHT22;9641;51.494;6.670;2023-12-28T06:36:14;10.80;99.90
19017;DHT22;9641;51.494;6.670;2023-12-28T06:38:41;10.80;99.90
19017;DHT22;9641;51.494;6.670;2023-12-28T06:41:13;10.80;99.90
19017;DHT22;9641;51.494;6.670;2023-12-28T06:43:40;10.70;99.90
19017;DHT22;9641;51.494;6.670;2023-12-28T06:46:07;10.70;99.90
19017;DHT22;9641;51.494;6.670;2023-12-28T06:48:35;10.80;99.90
19017;DHT22;9641;51.494;6.670;2023-12-28T06:51:04;10.80;99.90
19017;DHT22;9641;51.494;6.670;2023-12-28T06:53:31;10.90;99.90
19017;DHT22;9641;51.494;6.670;2023-12-28T06:55:59;10.90;99.90
19017;DHT22;9641;51.494;6.670;2023-12-28T06:58:27;10.90;99.90
19017;DHT22;9641;51.494;6.670;2023-12-28T07:00:54;10.90;99.90
19017;DHT22;9641;51.494;6.670;2023-12-28T07:03:22;10.90;99.90
19017;DHT22;9641;51.494;6.670;2023-12-28T07:05:51;10.90;99.90
19017;DHT22;9641;51.494;6.670;2023-12-28T07:11:10;10.90;99.90
19017;DHT22;9641;51.494;6.670;2023-12-28T07:13:39;10.90;99.90
19017;DHT22;9641;51.494;6.670;2023-12-28T07:16:06;10.90;99.90
19017;DHT22;9641;51.494;6.670;2023-12-28T07:18:35;10.90;99.90
19017;DHT22;9641;51.494;6.670;2023-12-28T07:21:03;10.90;99.90
19017;DHT22;9641;51.494;6.670;2023-12-28T07:23:31;10.90;99.90
19017;DHT22;9641;51.494;6.670;2023-12-28T07:25:59;10.90;99.90
19017;DHT22;9641;51.494;6.670;2023-12-28T07:28:26;11.00;99.90
19017;DHT22;9641;51.494;6.670;2023-12-28T07:30:55;10.90;99.90
19017;DHT22;9641;51.494;6.670;2023-12-28T07:33:22;11.00;99.90
19017;DHT22;9641;51.494;6.670;2023-12-28T07:35:49;11.00;99.90
19017;DHT22;9641;51.494;6.670;2023-12-28T07:38:17;11.00;99.90
19017;DHT22;9641;51.494;6.670;2023-12-28T07:40:44;11.10;99.90
19017;DHT22;9641;51.494;6.670;2023-12-28T07:43:12;11.10;99.90
19017;DHT22;9641;51.494;6.670;2023-12-28T07:45:40;11.10;99.90
19017;DHT22;9641;51.494;6.670;2023-12-28T07:48:09;11.10;99.90
19017;DHT22;9641;51.494;6.670;2023-12-28T07:50:36;11.10;99.90
19017;DHT22;9641;51.494;6.670;2023-12-28T07:53:03;11.10;99.90
19017;DHT22;9641;51.494;6.670;2023-12-28T07:55:31;11.10;99.90
19017;DHT22;9641;51.494;6.670;2023-12-28T07:57:58;11.10;99.90
19017;DHT22;9641;51.494;6.670;2023-12-28T08:00:25;11.10;99.90
19017;DHT22;9641;51.494;6.670;2023-12-28T08:02:52;11.20;99.90
19017;DHT22;9641;51.494;6.670;2023-12-28T08:05:22;11.10;99.90
19017;DHT22;9641;51.494;6.670;2023-12-28T08:07:50;11.10;99.90
19017;DHT22;9641;51.494;6.670;2023-12-28T08:10:17;11.10;99.90
19017;DHT22;9641;51.494;6.670;2023-12-28T08:12:45;11.10;99.90
19017;DHT22;9641;51.494;6.670;2023-12-28T08:15:12;11.10;99.90
19017;DHT22;9641;51.494;6.670;2023-12-28T08:17:39;11.10;99.90
19017;DHT22;9641;51.494;6.670;2023-12-28T08:20:07;11.10;99.90
19017;DHT22;9641;51.494;6.670;2023-12-28T08:22:35;11.10;99.90
19017;DHT22;9641;51.494;6.670;2023-12-28T08:25:02;11.10;99.90
19017;DHT22;9641;51.494;6.670;2023-12-28T08:27:30;11.20;99.90
19017;DHT22;9641;51.494;6.670;2023-12-28T08:29:56;11.20;99.90
19017;DHT22;9641;51.494;6.670;2023-12-28T08:32:23;11.20;99.90
19017;DHT22;9641;51.494;6.670;2023-12-28T08:34:50;11.20;99.90
19017;DHT22;9641;51.494;6.670;2023-12-28T08:37:17;11.20;99.90
19017;DHT22;9641;51.494;6.670;2023-12-28T08:39:45;11.20;99.90
19017;DHT22;9641;51.494;6.670;2023-12-28T08:42:12;11.20;99.90
19017;DHT22;9641;51.494;6.670;2023-12-28T08:44:39;11.30;99.90
19017;DHT22;9641;51.494;6.670;2023-12-28T08:47:06;11.30;99.90
19017;DHT22;9641;51.494;6.670;2023-12-28T08:49:32;11.30;99.90
19017;DHT22;9641;51.494;6.670;2023-12-28T08:51:59;11.30;99.90
19017;DHT22;9641;51.494;6.670;2023-12-28T08:54:26;11.30;99.90
19017;DHT22;9641;51.494;6.670;2023-12-28T08:56:54;11.30;99.90
19017;DHT22;9641;51.494;6.670;2023-12-28T08:59:21;11.30;99.90
19017;DHT22;9641;51.494;6.670;2023-12-28T09:01:48;11.30;99.90
19017;DHT22;9641;51.494;6.670;2023-12-28T09:04:15;11.30;99.90
19017;DHT22;9641;51.494;6.670;2023-12-28T09:06:42;11.30;99.90
19017;DHT22;9641;51.494;6.670;2023-12-28T09:09:09;11.30;99.90
19017;DHT22;9641;51.494;6.670;2023-12-28T09:11:36;11.40;99.90
19017;DHT22;9641;51.494;6.670;2023-12-28T09:14:04;11.30;99.90
19017;DHT22;9641;51.494;6.670;2023-12-28T09:16:31;11.40;99.90
19017;DHT22;9641;51.494;6.670;2023-12-28T09:18:58;11.40;99.90
19017;DHT22;9641;51.494;6.670;2023-12-28T09:21:25;11.40;99.90
19017;DHT22;9641;51.494;6.670;2023-12-28T09:23:52;11.40;99.90
19017;DHT22;9641;51.494;6.670;2023-12-28T09:26:19;11.50;99.90
19017;DHT22;9641;51.494;6.670;2023-12-28T09:28:45;11.40;99.90
19017;DHT22;9641;51.494;6.670;2023-12-28T09:31:14;11.50;99.90
19017;DHT22;9641;51.494;6.670;2023-12-28T09:33:41;11.50;99.90
19017;DHT22;9641;51.494;6.670;2023-12-28T09:36:09;11.50;99.90
19017;DHT22;9641;51.494;6.670;2023-12-28T09:38:38;11.50;99.90
19017;DHT22;9641;51.494;6.670;2023-12-28T09:41:09;11.60;99.90
19017;DHT22;9641;51.494;6.670;2023-12-28T09:43:41;11.60;99.90
19017;DHT22;9641;51.494;6.670;2023-12-28T09:46:09;11.60;99.90
19017;DHT22;9641;51.494;6.670;2023-12-28T09:48:38;11.60;99.90
19017;DHT22;9641;51.494;6.670;2023-12-28T09:51:05;11.60;99.90
19017;DHT22;9641;51.494;6.670;2023-12-28T09:53:32;11.60;82.50
19017;DHT22;9641;51.494;6.670;2023-12-28T09:55:59;11.60;99.90
19017;DHT22;9641;51.494;6.670;2023-12-28T09:58:27;11.60;92.00
19017;DHT22;9641;51.494;6.670;2023-12-28T10:00:56;11.60;99.30
19017;DHT22;9641;51.494;6.670;2023-12-28T10:03:23;11.60;65.50
19017;DHT22;9641;51.494;6.670;2023-12-28T10:05:52;11.60;99.90
19017;DHT22;9641;51.494;6.670;2023-12-28T10:08:19;11.60;63.10
19017;DHT22;9641;51.494;6.670;2023-12-28T10:10:46;11.60;87.10
19017;DHT22;9641;51.494;6.670;2023-12-28T10:13:19;11.60;56.70
19017;DHT22;9641;51.494;6.670;2023-12-28T10:15:47;11.60;55.10
19017;DHT22;9641;51.494;6.670;2023-12-28T10:18:17;11.60;46.00
19017;DHT22;9641;51.494;6.670;2023-12-28T10:20:49;11.60;68.40
19017;DHT22;9641;51.494;6.670;2023-12-28T10:23:17;11.60;35.50
19017;DHT22;9641;51.494;6.670;2023-12-28T10:25:44;11.60;49.90
19017;DHT22;9641;51.494;6.670;2023-12-28T10:28:12;11.70;31.80
19017;DHT22;9641;51.494;6.670;2023-12-28T10:30:39;11.70;21.80
19017;DHT22;9641;51.494;6.670;2023-12-28T10:33:06;11.70;8.60
19017;DHT22;9641;51.494;6.670;2023-12-28T10:35:33;11.60;6.20
19017;DHT22;9641;51.494;6.670;2023-12-28T10:38:01;11.70;15.20
19017;DHT22;9641;51.494;6.670;2023-12-28T10:40:30;11.70;15.30
19017;DHT22;9641;51.494;6.670;2023-12-28T10:42:58;11.70;12.60
19017;DHT22;9641;51.494;6.670;2023-12-28T10:45:29;11.70;1.00
19017;DHT22;9641;51.494;6.670;2023-12-28T10:48:04;11.70;14.90
19017;DHT22;9641;51.494;6.670;2023-12-28T10:50:38;11.70;4.30
19017;DHT22;9641;51.494;6.670;2023-12-28T10:53:15;11.70;15.10
19017;DHT22;9641;51.494;6.670;2023-12-28T10:55:52;11.80;26.40
19017;DHT22;9641;51.494;6.670;2023-12-28T10:58:26;11.80;16.50
19017;DHT22;9641;51.494;6.670;2023-12-28T11:01:00;11.80;6.60
19017;DHT22;9641;51.494;6.670;2023-12-28T11:03:34;11.80;12.30
19017;DHT22;9641;51.494;6.670;2023-12-28T11:06:04;11.80;28.50
19017;DHT22;9641;51.494;6.670;2023-12-28T11:08:32;11.80;15.40
19017;DHT22;9641;51.494;6.670;2023-12-28T11:11:04;11.80;46.40
19017;DHT22;9641;51.494;6.670;2023-12-28T11:13:33;11.80;47.80
19017;DHT22;9641;51.494;6.670;2023-12-28T11:16:02;11.80;44.20
19017;DHT22;9641;51.494;6.670;2023-12-28T11:18:30;11.80;52.80
19017;DHT22;9641;51.494;6.670;2023-12-28T11:20:56;11.80;53.70
19017;DHT22;9641;51.494;6.670;2023-12-28T11:23:24;11.80;8.70
19017;DHT22;9641;51.494;6.670;2023-12-28T11:25:52;11.90;24.50
19017;DHT22;9641;51.494;6.670;2023-12-28T11:28:20;11.90;25.50
19017;DHT22;9641;51.494;6.670;2023-12-28T11:30:51;11.90;25.00
19017;DHT22;9641;51.494;6.670;2023-12-28T11:33:18;11.90;17.90
19017;DHT22;9641;51.494;6.670;2023-12-28T11:35:47;11.90;4.00
19017;DHT22;9641;51.494;6.670;2023-12-28T11:38:15;11.90;1.00
19017;DHT22;9641;51.494;6.670;2023-12-28T11:40:45;11.90;1.00
19017;DHT22;9641;51.494;6.670;2023-12-28T11:43:19;12.00;1.00
19017;DHT22;9641;51.494;6.670;2023-12-28T11:45:48;12.10;1.00
19017;DHT22;9641;51.494;6.670;2023-12-28T11:48:22;12.10;1.00
19017;DHT22;9641;51.494;6.670;2023-12-28T11:50:50;12.10;1.00
19017;DHT22;9641;51.494;6.670;2023-12-28T11:53:17;12.10;1.00
19017;DHT22;9641;51.494;6.670;2023-12-28T11:55:45;12.10;1.00
19017;DHT22;9641;51.494;6.670;2023-12-28T11:58:11;12.10;1.00
19017;DHT22;9641;51.494;6.670;2023-12-28T12:00:41;12.20;1.00
19017;DHT22;9641;51.494;6.670;2023-12-28T12:03:10;12.20;1.00
19017;DHT22;9641;51.494;6.670;2023-12-28T12:05:37;12.20;1.00
19017;DHT22;9641;51.494;6.670;2023-12-28T12:08:04;12.20;1.00
19017;DHT22;9641;51.494;6.670;2023-12-28T12:10:31;12.30;1.00
19017;DHT22;9641;51.494;6.670;2023-12-28T12:12:59;12.20;1.00
19017;DHT22;9641;51.494;6.670;2023-12-28T12:15:28;12.30;1.00
19017;DHT22;9641;51.494;6.670;2023-12-28T12:17:57;12.30;1.00
19017;DHT22;9641;51.494;6.670;2023-12-28T12:20:24;12.40;1.00
19017;DHT22;9641;51.494;6.670;2023-12-28T12:22:51;12.40;1.00
19017;DHT22;9641;51.494;6.670;2023-12-28T12:25:18;12.50;1.00
19017;DHT22;9641;51.494;6.670;2023-12-28T12:27:46;12.70;1.00
19017;DHT22;9641;51.494;6.670;2023-12-28T12:30:13;12.70;1.00
19017;DHT22;9641;51.494;6.670;2023-12-28T12:32:40;12.70;1.00
19017;DHT22;9641;51.494;6.670;2023-12-28T12:35:10;12.60;1.00
19017;DHT22;9641;51.494;6.670;2023-12-28T12:37:38;12.50;1.00
19017;DHT22;9641;51.494;6.670;2023-12-28T12:40:05;12.50;1.00
19017;DHT22;9641;51.494;6.670;2023-12-28T12:42:32;12.50;1.00
19017;DHT22;9641;51.494;6.670;2023-12-28T12:44:59;12.40;1.00
19017;DHT22;9641;51.494;6.670;2023-12-28T12:47:32;12.40;1.00
19017;DHT22;9641;51.494;6.670;2023-12-28T12:50:20;12.40;1.00
19017;DHT22;9641;51.494;6.670;2023-12-28T12:52:47;12.30;1.00
19017;DHT22;9641;51.494;6.670;2023-12-28T12:55:14;12.30;1.00
19017;DHT22;9641;51.494;6.670;2023-12-28T12:57:41;12.30;1.00
19017;DHT22;9641;51.494;6.670;2023-12-28T13:00:10;12.20;1.00
19017;DHT22;9641;51.494;6.670;2023-12-28T13:02:37;12.20;1.00
19017;DHT22;9641;51.494;6.670;2023-12-28T13:05:05;12.20;1.00
19017;DHT22;9641;51.494;6.670;2023-12-28T13:07:33;12.30;1.00
19017;DHT22;9641;51.494;6.670;2023-12-28T13:10:14;12.30;1.00
19017;DHT22;9641;51.494;6.670;2023-12-28T13:12:41;12.30;1.00
19017;DHT22;9641;51.494;6.670;2023-12-28T13:15:09;12.30;1.00
19017;DHT22;9641;51.494;6.670;2023-12-28T13:17:36;12.30;1.00
19017;DHT22;9641;51.494;6.670;2023-12-28T13:20:03;12.30;1.00
19017;DHT22;9641;51.494;6.670;2023-12-28T13:22:33;12.30;1.00
19017;DHT22;9641;51.494;6.670;2023-12-28T13:24:59;12.30;1.00
19017;DHT22;9641;51.494;6.670;2023-12-28T13:27:45;12.40;1.00
19017;DHT22;9641;51.494;6.670;2023-12-28T13:30:13;12.50;1.00
19017;DHT22;9641;51.494;6.670;2023-12-28T13:32:41;12.40;1.00
19017;DHT22;9641;51.494;6.670;2023-12-28T13:35:12;12.40;1.00
19017;DHT22;9641;51.494;6.670;2023-12-28T13:37:41;12.40;1.00
19017;DHT22;9641;51.494;6.670;2023-12-28T13:40:09;12.30;1.00
19017;DHT22;9641;51.494;6.670;2023-12-28T13:42:45;12.30;1.00
19017;DHT22;9641;51.494;6.670;2023-12-28T13:45:12;12.40;1.00
19017;DHT22;9641;51.494;6.670;2023-12-28T13:47:39;12.40;1.00
19017;DHT22;9641;51.494;6.670;2023-12-28T13:50:06;12.40;1.00
19017;DHT22;9641;51.494;6.670;2023-12-28T13:52:33;12.30;1.00
19017;DHT22;9641;51.494;6.670;2023-12-28T13:55:02;12.30;1.00
19017;DHT22;9641;51.494;6.670;2023-12-28T13:57:28;12.30;1.00
19017;DHT22;9641;51.494;6.670;2023-12-28T13:59:55;12.30;1.00
19017;DHT22;9641;51.494;6.670;2023-12-28T14:02:25;12.30;1.00
19017;DHT22;9641;51.494;6.670;2023-12-28T14:04:52;12.30;1.00
19017;DHT22;9641;51.494;6.670;2023-12-28T14:07:21;12.30;1.00
19017;DHT22;9641;51.494;6.670;2023-12-28T14:09:48;12.20;1.00
19017;DHT22;9641;51.494;6.670;2023-12-28T14:12:16;12.20;1.00
19017;DHT22;9641;51.494;6.670;2023-12-28T14:14:43;12.20;1.00
19017;DHT22;9641;51.494;6.670;2023-12-28T14:17:10;12.10;1.00
19017;DHT22;9641;51.494;6.670;2023-12-28T14:19:37;12.10;1.00
19017;DHT22;9641;51.494;6.670;2023-12-28T14:22:04;12.10;1.00
19017;DHT22;9641;51.494;6.670;2023-12-28T14:24:31;12.10;1.00
19017;DHT22;9641;51.494;6.670;2023-12-28T14:26:58;12.10;1.00
19017;DHT22;9641;51.494;6.670;2023-12-28T14:29:27;12.10;1.00
19017;DHT22;9641;51.494;6.670;2023-12-28T14:31:55;12.00;1.00
19017;DHT22;9641;51.494;6.670;2023-12-28T14:34:23;12.00;1.00
19017;DHT22;9641;51.494;6.670;2023-12-28T14:36:52;12.00;1.00
19017;DHT22;9641;51.494;6.670;2023-12-28T14:39:19;12.00;1.00
19017;DHT22;9641;51.494;6.670;2023-12-28T14:41:46;12.10;1.00
19017;DHT22;9641;51.494;6.670;2023-12-28T14:44:13;12.10;1.00
19017;DHT22;9641;51.494;6.670;2023-12-28T14:46:41;12.10;1.00
19017;DHT22;9641;51.494;6.670;2023-12-28T14:49:08;12.00;1.00
19017;DHT22;9641;51.494;6.670;2023-12-28T14:51:35;12.00;1.00
19017;DHT22;9641;51.494;6.670;2023-12-28T14:54:02;11.90;1.00
19017;DHT22;9641;51.494;6.670;2023-12-28T14:56:28;12.00;1.00
19017;DHT22;9641;51.494;6.670;2023-12-28T14:58:55;12.00;1.00
19017;DHT22;9641;51.494;6.670;2023-12-28T15:01:22;11.90;1.00
19017;DHT22;9641;51.494;6.670;2023-12-28T15:03:50;11.90;1.00
19017;DHT22;9641;51.494;6.670;2023-12-28T15:06:17;11.90;1.00
19017;DHT22;9641;51.494;6.670;2023-12-28T15:08:43;11.80;1.00
19017;DHT22;9641;51.494;6.670;2023-12-28T15:11:10;11.70;1.00
19017;DHT22;9641;51.494;6.670;2023-12-28T15:13:38;11.70;1.00
19017;DHT22;9641;51.494;6.670;2023-12-28T15:16:06;11.60;1.00
19017;DHT22;9641;51.494;6.670;2023-12-28T15:18:33;11.60;1.00
19017;DHT22;9641;51.494;6.670;2023-12-28T15:21:02;11.60;1.00
19017;DHT22;9641;51.494;6.670;2023-12-28T15:23:30;11.60;1.00
19017;DHT22;9641;51.494;6.670;2023-12-28T15:25:57;11.60;1.00
19017;DHT22;9641;51.494;6.670;2023-12-28T15:28:23;11.70;1.00
19017;DHT22;9641;51.494;6.670;2023-12-28T15:30:50;11.70;1.00
19017;DHT22;9641;51.494;6.670;2023-12-28T15:33:17;11.70;1.00
19017;DHT22;9641;51.494;6.670;2023-12-28T15:35:44;11.70;1.00
19017;DHT22;9641;51.494;6.670;2023-12-28T15:38:13;11.70;1.00
19017;DHT22;9641;51.494;6.670;2023-12-28T15:40:41;11.70;1.00
19017;DHT22;9641;51.494;6.670;2023-12-28T15:43:08;11.70;1.00
19017;DHT22;9641;51.494;6.670;2023-12-28T15:45:36;11.70;1.00
19017;DHT22;9641;51.494;6.670;2023-12-28T15:48:03;11.60;1.00
19017;DHT22;9641;51.494;6.670;2023-12-28T15:50:30;11.60;1.00
19017;DHT22;9641;51.494;6.670;2023-12-28T15:52:57;11.60;1.00
19017;DHT22;9641;51.494;6.670;2023-12-28T15:55:25;11.60;1.00
19017;DHT22;9641;51.494;6.670;2023-12-28T15:57:52;11.60;1.00